Time;durP1;ratioP1;P1;durP2;ratioP2;P2;SDS_P1;SDS_P2;PMS_P1;PMS_P2;Temp;Humidity;BMP_temperature;BMP_pressure;BME280_temperature;BME280_humidity;BME280_pressure;Samples;Min_cycle;Max_cycle;Signal;HPM_P1;HPM_P2
2021/01/11 00:00:24;;;;;;;37.92;16.67;;;;;;;-5.05;57.52;100127.19;5070249;28;20036;-53
2021/01/11 00:02:53;;;;;;;36.50;16.20;;;;;;;-5.03;57.51;100127.19;5071341;28;20557;-55
2021/01/11 00:05:19;;;;;;;40.58;16.60;;;;;;;-5.77;57.75;99991.44;5070848;28;20056;-55
2021/01/11 00:07:45;;;;;;;39.83;16.08;;;;;;;-5.09;57.97;100123.75;5070514;28;20055;-52
2021/01/11 00:10:12;;;;;;;33.67;15.70;;;;;;;-5.09;57.84;100115.91;5071318;28;20040;-52
2021/01/11 00:12:42;;;;;;;37.45;15.77;;;;;;;-5.08;57.81;100127.25;5070856;28;20024;-53
2021/01/11 00:15:09;;;;;;;33.20;15.80;;;;;;;-5.12;57.77;100100.28;5070444;28;20068;-57
2021/01/11 00:17:35;;;;;;;28.65;13.65;;;;;;;-5.28;58.16;100077.88;5070605;28;20126;-54
2021/01/11 00:20:03;;;;;;;36.45;14.32;;;;;;;-5.54;57.80;100039.88;5070458;28;20038;-53
2021/01/11 00:22:30;;;;;;;33.42;14.43;;;;;;;-5.31;57.99;100088.31;5071125;28;20086;-53
2021/01/11 00:24:56;;;;;;;34.30;13.93;;;;;;;-5.16;57.81;100103.81;5070234;28;20028;-49
2021/01/11 00:27:21;;;;;;;33.55;14.40;;;;;;;-5.73;58.00;100008.78;5070723;28;20079;-55
2021/01/11 00:29:47;;;;;;;30.45;13.00;;;;;;;-5.16;58.22;100110.81;5070442;28;20040;-53
2021/01/11 00:32:12;;;;;;;35.88;14.00;;;;;;;-5.16;57.97;100110.81;5052815;28;20450;-54
2021/01/11 00:34:38;;;;;;;32.97;14.63;;;;;;;-5.22;58.07;100094.31;5070449;28;20048;-53
2021/01/11 00:37:03;;;;;;;32.05;13.88;;;;;;;-5.25;57.86;100104.78;5070349;28;20377;-53
2021/01/11 00:39:29;;;;;;;28.15;14.48;;;;;;;-5.27;58.07;100093.50;5070322;28;20036;-53
2021/01/11 00:42:01;;;;;;;32.08;13.50;;;;;;;-5.22;57.95;100101.28;5070523;28;20040;-56
2021/01/11 00:44:27;;;;;;;25.52;13.27;;;;;;;-5.31;57.99;100089.22;5069893;28;20028;-53
2021/01/11 00:47:01;;;;;;;32.78;13.45;;;;;;;-5.33;57.93;100102.25;5069882;28;20062;-50
2021/01/11 00:49:27;;;;;;;35.97;13.82;;;;;;;-5.48;57.94;100074.59;5070379;28;20032;-54
2021/01/11 00:51:53;;;;;;;31.10;13.70;;;;;;;-5.43;58.25;100090.19;5071003;28;20040;-51
2021/01/11 00:54:19;;;;;;;28.52;12.77;;;;;;;-5.45;58.32;100097.19;5070190;28;20515;-51
2021/01/11 00:56:44;;;;;;;30.30;11.88;;;;;;;-5.60;58.15;100060.81;5069837;28;20032;-57
2021/01/11 00:59:10;;;;;;;31.83;12.90;;;;;;;-5.45;58.40;100097.19;5068346;28;20028;-51
2021/01/11 01:01:35;;;;;;;28.25;12.75;;;;;;;-5.44;58.25;100093.69;5067777;28;20536;-53
2021/01/11 01:04:01;;;;;;;25.23;11.80;;;;;;;-5.44;58.56;100103.25;5067223;28;20376;-54
2021/01/11 01:06:27;;;;;;;33.97;14.45;;;;;;;-5.49;58.24;100085.91;5067708;28;20423;-55
2021/01/11 01:08:52;;;;;;;30.33;13.75;;;;;;;-5.88;58.42;100012.41;5067968;28;20101;-55
2021/01/11 01:11:18;;;;;;;31.80;13.25;;;;;;;-5.39;58.31;100091.88;5069650;28;20036;-55
2021/01/11 01:13:44;;;;;;;29.65;13.48;;;;;;;-5.65;58.18;100043.47;5071596;28;20028;-54
2021/01/11 01:16:09;;;;;;;34.47;14.35;;;;;;;-5.36;58.43;100086.63;5073330;28;20025;-52
2021/01/11 01:18:35;;;;;;;32.50;13.73;;;;;;;-5.52;58.45;100065.06;5073637;28;20045;-54
2021/01/11 01:21:01;;;;;;;33.33;13.35;;;;;;;-5.31;58.04;100102.25;5073674;28;20028;-51
2021/01/11 01:23:26;;;;;;;32.47;13.32;;;;;;;-5.30;58.33;100082.25;5073537;28;20063;-53
2021/01/11 01:25:52;;;;;;;35.83;14.90;;;;;;;-5.69;58.25;100020.91;5073523;28;20033;-55
2021/01/11 01:28:18;;;;;;;36.15;16.38;;;;;;;-5.20;58.67;100107.34;5073243;28;20040;-49
2021/01/11 01:30:43;;;;;;;34.25;14.95;;;;;;;-5.16;58.04;100103.81;5073054;28;20024;-54
2021/01/11 01:33:08;;;;;;;36.78;15.13;;;;;;;-5.14;58.03;100111.66;5073466;28;20032;-52
2021/01/11 01:35:34;;;;;;;37.90;16.33;;;;;;;-5.14;58.54;100102.06;5073492;28;20211;-53
2021/01/11 01:37:59;;;;;;;37.22;15.75;;;;;;;-5.12;58.23;100096.84;5073204;28;20032;-55
2021/01/11 01:40:25;;;;;;;37.67;16.20;;;;;;;-5.42;58.13;100055.41;5073605;28;20033;-55
2021/01/11 01:42:52;;;;;;;35.13;15.73;;;;;;;-5.17;58.18;100096.88;5072607;28;20033;-54
2021/01/11 01:45:17;;;;;;;37.83;16.25;;;;;;;-5.29;58.26;100089.19;5072105;28;20123;-54
2021/01/11 01:47:43;;;;;;;37.08;16.35;;;;;;;-5.38;58.58;100072.75;5072836;28;20136;-52
2021/01/11 01:50:10;;;;;;;35.33;15.23;;;;;;;-5.46;58.55;100069.38;5073275;28;20035;-52
2021/01/11 01:52:37;;;;;;;37.05;15.15;;;;;;;-5.23;58.51;100104.78;5072590;28;20043;-54
2021/01/11 01:55:04;;;;;;;40.97;15.32;;;;;;;-5.67;58.54;100026.97;5055062;28;20033;-51
2021/01/11 01:57:30;;;;;;;35.15;15.73;;;;;;;-5.24;58.69;100095.22;5073179;28;20037;-51
2021/01/11 01:59:56;;;;;;;35.58;15.05;;;;;;;-5.79;58.71;100001.00;5073362;28;20054;-55
2021/01/11 02:02:21;;;;;;;38.08;15.45;;;;;;;-5.25;58.82;100085.66;5072933;28;20058;-51
2021/01/11 02:04:47;;;;;;;36.70;16.35;;;;;;;-5.30;58.73;100075.28;5072680;28;20037;-50
2021/01/11 02:07:23;;;;;;;39.17;15.88;;;;;;;-5.13;58.37;100102.94;5072844;28;20101;-48
2021/01/11 02:10:03;;;;;;;39.85;15.52;;;;;;;-5.15;58.59;100100.31;5072769;28;20051;-51
2021/01/11 02:12:53;;;;;;;39.05;15.02;;;;;;;-5.14;58.58;100096.84;5072026;28;21844;-53
2021/01/11 02:15:27;;;;;;;35.13;15.27;;;;;;;-5.14;58.20;100099.44;5060483;28;20036;-54
2021/01/11 02:18:11;;;;;;;36.70;14.80;;;;;;;-5.11;58.86;100111.63;5071037;28;20730;-52
2021/01/11 02:20:59;;;;;;;33.60;14.55;;;;;;;-5.12;58.10;100096.84;5054356;28;20370;-51
2021/01/11 02:23:27;;;;;;;34.30;14.50;;;;;;;-5.14;58.82;100091.63;5071490;28;20036;-52
2021/01/11 02:26:08;;;;;;;37.10;16.40;;;;;;;-5.17;58.75;100094.25;5072555;28;20463;-56
2021/01/11 02:28:53;;;;;;;40.67;16.77;;;;;;;-5.15;58.74;100108.16;5072863;28;20036;-53
2021/01/11 02:31:23;;;;;;;35.53;15.65;;;;;;;-5.72;58.67;99999.19;5071806;28;20113;-54
2021/01/11 02:33:52;;;;;;;35.60;15.07;;;;;;;-5.19;58.52;100094.28;5072012;28;20381;-53
2021/01/11 02:36:20;;;;;;;32.95;14.43;;;;;;;-5.11;58.67;100109.84;5072662;28;20059;-50
2021/01/11 02:38:47;;;;;;;38.92;15.50;;;;;;;-5.10;58.29;100116.78;5072438;28;20040;-52
2021/01/11 02:41:12;;;;;;;39.58;15.70;;;;;;;-5.09;58.59;100105.47;5072131;28;20028;-49
2021/01/11 02:43:38;;;;;;;35.75;14.85;;;;;;;-5.13;58.37;100106.41;5072209;28;20060;-52
2021/01/11 02:46:03;;;;;;;33.83;14.57;;;;;;;-5.11;58.11;100112.47;5071944;28;20035;-54
2021/01/11 02:48:56;;;;;;;28.38;13.15;;;;;;;-5.10;58.39;100103.75;5072698;28;20124;-55
2021/01/11 02:51:21;;;;;;;33.28;13.75;;;;;;;-5.17;58.00;100101.25;5071698;28;20032;-53
2021/01/11 02:54:23;;;;;;;30.60;13.38;;;;;;;-5.20;58.41;100105.59;5071533;28;20040;-54
2021/01/11 02:57:07;;;;;;;35.97;14.57;;;;;;;-5.26;58.26;100102.22;5072063;28;20510;-55
2021/01/11 02:59:58;;;;;;;34.83;14.27;;;;;;;-5.77;58.52;100007.09;5071782;28;20115;-53
2021/01/11 03:02:27;;;;;;;36.70;15.25;;;;;;;-5.50;58.52;100062.47;5071676;28;20582;-56
2021/01/11 03:04:54;;;;;;;37.30;15.27;;;;;;;-5.22;58.15;100117.81;5071326;28;20032;-51
2021/01/11 03:07:19;;;;;;;35.85;15.52;;;;;;;-5.17;58.73;100111.69;5071504;28;20127;-52
2021/01/11 03:09:47;;;;;;;37.83;15.90;;;;;;;-5.14;58.34;100115.13;5071556;28;20144;-52
2021/01/11 03:12:13;;;;;;;36.95;15.07;;;;;;;-5.30;58.60;100082.25;5071109;28;20090;-49
2021/01/11 03:14:39;;;;;;;39.92;15.75;;;;;;;-5.60;58.53;100019.06;5071490;28;20040;-55
2021/01/11 03:17:05;;;;;;;42.17;15.57;;;;;;;-5.09;58.04;100099.41;5071112;28;20033;-49
2021/01/11 03:19:30;;;;;;;43.55;16.80;;;;;;;-5.72;58.14;100002.69;5071657;28;20036;-54
2021/01/11 03:21:56;;;;;;;38.58;16.02;;;;;;;-5.10;58.65;100113.34;5071087;28;20519;-54
2021/01/11 03:24:22;;;;;;;39.55;16.95;;;;;;;-5.20;58.26;100087.31;5071058;28;20060;-49
2021/01/11 03:26:49;;;;;;;40.97;17.42;;;;;;;-5.11;58.62;100102.03;5070995;28;20059;-53
2021/01/11 03:29:16;;;;;;;41.33;16.23;;;;;;;-5.08;58.54;100117.66;5071410;28;20051;-51
2021/01/11 03:31:42;;;;;;;40.78;17.73;;;;;;;-5.07;58.24;100108.94;5070924;28;20360;-52
2021/01/11 03:34:09;;;;;;;42.97;17.25;;;;;;;-5.15;58.49;100102.94;5070470;28;20502;-54
2021/01/11 03:36:36;;;;;;;44.70;17.95;;;;;;;-5.12;58.25;100113.34;5071537;28;20032;-54
2021/01/11 03:39:03;;;;;;;40.67;17.50;;;;;;;-5.26;58.54;100090.00;5071327;28;20086;-53
2021/01/11 03:41:28;;;;;;;48.00;16.77;;;;;;;-5.15;58.77;100118.59;5070411;28;20032;-50
2021/01/11 03:43:54;;;;;;;44.38;18.33;;;;;;;-5.18;58.67;100116.03;5071033;28;20401;-51
2021/01/11 03:46:19;;;;;;;44.10;18.48;;;;;;;-5.16;58.81;100129.09;5070955;28;20112;-53
2021/01/11 03:48:45;;;;;;;40.67;17.00;;;;;;;-5.41;58.50;100071.94;5070324;28;20028;-51
2021/01/11 03:51:12;;;;;;;47.85;18.02;;;;;;;-5.26;58.83;100104.81;5070671;28;20040;-52
2021/01/11 03:53:37;;;;;;;44.92;17.17;;;;;;;-5.18;58.70;100116.03;5070773;28;20044;-49
2021/01/11 03:56:07;;;;;;;43.58;17.88;;;;;;;-5.34;58.97;100084.03;5070894;28;20499;-52
2021/01/11 03:58:33;;;;;;;43.83;18.23;;;;;;;-5.13;58.62;100116.00;5070656;28;20036;-54
2021/01/11 04:00:59;;;;;;;42.78;16.92;;;;;;;-5.13;58.62;100114.22;5070881;28;20103;-54
2021/01/11 04:03:26;;;;;;;44.72;18.67;;;;;;;-5.23;58.54;100099.56;5069579;28;20032;-52
2021/01/11 04:05:51;;;;;;;42.45;17.40;;;;;;;-5.21;58.09;100106.47;5068142;28;20056;-50
2021/01/11 04:08:16;;;;;;;39.90;16.80;;;;;;;-5.12;58.50;100115.94;5067857;28;20114;-51
2021/01/11 04:10:42;;;;;;;48.63;18.38;;;;;;;-5.28;58.66;100098.75;5070317;28;20498;-50
2021/01/11 04:13:08;;;;;;;39.90;16.58;;;;;;;-5.19;58.63;100106.47;5070861;28;20040;-52
2021/01/11 04:15:34;;;;;;;45.67;18.15;;;;;;;-5.62;58.75;100032.16;5070450;28;20066;-53
2021/01/11 04:18:00;;;;;;;41.00;17.48;;;;;;;-5.12;58.55;100115.94;5069659;28;20043;-52
2021/01/11 04:20:27;;;;;;;43.70;17.88;;;;;;;-5.10;58.65;100122.03;5070137;28;20097;-52
2021/01/11 04:22:53;;;;;;;41.80;17.13;;;;;;;-5.07;58.33;100114.16;5070560;28;20079;-52
2021/01/11 04:25:18;;;;;;;42.50;17.10;;;;;;;-5.07;58.60;100127.19;5070013;28;20087;-55
2021/01/11 04:27:44;;;;;;;41.03;15.82;;;;;;;-5.36;58.68;100075.34;5069804;28;20032;-51
2021/01/11 04:30:11;;;;;;;41.17;16.70;;;;;;;-5.08;58.42;100132.47;5070261;28;20040;-50
2021/01/11 04:32:38;;;;;;;45.45;17.65;;;;;;;-5.14;58.38;100117.72;5070821;28;20132;-52
2021/01/11 04:35:06;;;;;;;42.00;16.95;;;;;;;-5.06;58.48;100133.31;5070218;28;20507;-54
2021/01/11 04:37:32;;;;;;;48.47;18.38;;;;;;;-5.12;58.45;100117.72;5069698;28;20064;-52
2021/01/11 04:39:57;;;;;;;46.33;17.67;;;;;;;-5.07;58.27;100131.56;5069962;28;20142;-56
2021/01/11 04:42:28;;;;;;;43.78;17.17;;;;;;;-5.05;58.21;100141.13;5070265;28;20479;-54
2021/01/11 04:44:58;;;;;;;44.60;17.73;;;;;;;-5.70;58.24;100034.81;5069494;28;20075;-50
2021/01/11 04:47:24;;;;;;;41.67;17.50;;;;;;;-5.09;58.65;100141.19;5069308;28;20127;-51
2021/01/11 04:49:52;;;;;;;42.30;17.45;;;;;;;-5.07;58.22;100137.66;5069565;28;20035;-52
2021/01/11 04:52:18;;;;;;;41.42;18.30;;;;;;;-5.04;58.59;100147.22;5070036;28;20499;-54
2021/01/11 04:54:49;;;;;;;49.33;18.83;;;;;;;-5.23;58.34;100115.22;5069548;28;20039;-56
2021/01/11 04:57:14;;;;;;;42.83;17.38;;;;;;;-5.09;58.85;100147.25;5069730;28;20036;-53
2021/01/11 04:59:48;;;;;;;45.05;17.27;;;;;;;-5.05;58.34;100146.34;5069977;28;20040;-50
2021/01/11 05:02:20;;;;;;;43.35;17.02;;;;;;;-5.02;58.94;100152.44;5069494;28;20531;-56
2021/01/11 05:04:45;;;;;;;42.22;16.98;;;;;;;-5.03;58.79;100161.13;5069660;28;20039;-53
2021/01/11 05:07:17;;;;;;;51.60;19.55;;;;;;;-5.08;58.37;100151.59;5069215;28;20053;-51
2021/01/11 05:09:45;;;;;;;48.38;19.30;;;;;;;-5.03;58.52;100171.59;5069925;28;20151;-51
2021/01/11 05:12:13;;;;;;;45.63;18.13;;;;;;;-5.00;58.71;100176.78;5051687;28;20036;-49
2021/01/11 05:14:39;;;;;;;46.10;18.02;;;;;;;-5.00;58.68;100159.34;5069883;28;20130;-52
2021/01/11 05:17:05;;;;;;;38.55;17.20;;;;;;;-4.99;58.92;100173.28;5069834;28;20039;-52
2021/01/11 05:19:31;;;;;;;45.53;17.92;;;;;;;-4.98;58.96;100168.03;5051671;28;20032;-53
2021/01/11 05:21:56;;;;;;;45.80;18.63;;;;;;;-5.07;58.48;100155.94;5069328;28;20037;-52
2021/01/11 05:24:35;;;;;;;46.95;19.38;;;;;;;-4.93;58.77;100174.09;5069901;28;20110;-56
2021/01/11 05:27:04;;;;;;;47.50;17.85;;;;;;;-4.97;58.89;100184.56;5069144;28;20079;-49
2021/01/11 05:29:29;;;;;;;47.80;18.88;;;;;;;-5.02;58.54;100173.31;5069616;28;20043;-56
2021/01/11 05:32:00;;;;;;;47.22;17.77;;;;;;;-4.97;58.66;100189.78;5069824;28;20119;-52
2021/01/11 05:34:45;;;;;;;54.78;18.38;;;;;;;-5.00;58.82;100171.56;5069352;28;20036;-49
2021/01/11 05:37:11;;;;;;;50.55;18.02;;;;;;;-5.03;58.95;100179.41;5069507;28;20037;-52
2021/01/11 05:39:36;;;;;;;48.90;18.17;;;;;;;-4.99;58.76;100181.13;5069274;28;20488;-51
2021/01/11 05:42:02;;;;;;;46.53;18.85;;;;;;;-4.98;58.73;100185.44;5051813;28;20048;-54
2021/01/11 05:44:27;;;;;;;46.67;18.15;;;;;;;-5.04;58.61;100191.59;5069360;28;20032;-57
2021/01/11 05:47:01;;;;;;;49.13;19.10;;;;;;;-5.08;58.67;100175.09;5069279;28;20067;-51
2021/01/11 05:49:28;;;;;;;46.88;17.95;;;;;;;-4.97;58.92;100203.69;5069626;28;20059;-54
2021/01/11 05:51:53;;;;;;;42.67;17.65;;;;;;;-4.98;58.80;100193.28;5069305;28;20051;-52
2021/01/11 05:54:26;;;;;;;46.63;17.42;;;;;;;-4.97;58.51;100210.69;5069135;28;20036;-52
2021/01/11 05:56:57;;;;;;;47.97;17.75;;;;;;;-4.98;58.87;100206.34;5070996;28;20036;-54
2021/01/11 05:59:23;;;;;;;45.33;17.42;;;;;;;-5.02;58.88;100205.50;5073186;28;20062;-50
2021/01/11 06:01:49;;;;;;;50.15;19.05;;;;;;;-5.35;58.92;100144.94;5072507;28;20036;-51
2021/01/11 06:04:15;;;;;;;47.45;18.85;;;;;;;-4.96;58.49;100202.81;5072675;28;20545;-51
2021/01/11 06:06:41;;;;;;;52.80;20.73;;;;;;;-4.97;58.84;100211.53;5073480;28;20061;-50
2021/01/11 06:09:08;;;;;;;49.42;18.75;;;;;;;-4.97;58.76;100210.69;5073007;28;20063;-48
2021/01/11 06:11:37;;;;;;;45.97;18.17;;;;;;;-4.94;58.54;100214.13;5072087;28;20115;-49
2021/01/11 06:14:04;;;;;;;46.90;17.90;;;;;;;-4.93;58.38;100194.09;5072385;28;20140;-52
2021/01/11 06:16:31;;;;;;;44.53;18.55;;;;;;;-4.93;58.65;100209.75;5072830;28;20078;-54
2021/01/11 06:18:57;;;;;;;40.75;16.42;;;;;;;-4.95;58.60;100188.03;5072685;28;20123;-51
2021/01/11 06:21:23;;;;;;;44.58;17.40;;;;;;;-5.09;58.24;100170.75;5072127;28;20212;-53
2021/01/11 06:24:08;;;;;;;53.33;18.88;;;;;;;-4.88;58.30;100200.13;5072208;28;20546;-52
2021/01/11 06:26:34;;;;;;;45.20;17.13;;;;;;;-4.86;59.05;100206.19;5072581;28;20068;-56
2021/01/11 06:28:59;;;;;;;44.20;17.52;;;;;;;-4.84;58.74;100204.44;5054680;28;20063;-56
2021/01/11 06:31:31;;;;;;;50.95;19.00;;;;;;;-4.81;58.57;100190.47;5072060;28;20044;-54
2021/01/11 06:33:58;;;;;;;43.83;17.73;;;;;;;-5.43;58.82;100084.97;5072216;28;20037;-50
2021/01/11 06:36:31;;;;;;;46.33;17.98;;;;;;;-4.74;58.25;100199.97;5072529;28;20044;-50
2021/01/11 06:39:06;;;;;;;41.88;16.65;;;;;;;-4.72;58.84;100192.13;5072698;28;20128;-62
2021/01/11 06:41:33;;;;;;;42.20;16.50;;;;;;;-5.02;58.24;100152.44;5072116;28;20032;-61
2021/01/11 06:44:07;;;;;;;45.42;17.40;;;;;;;-4.76;58.36;100197.38;5072024;28;20051;-62
2021/01/11 06:46:32;;;;;;;47.95;18.30;;;;;;;-4.71;58.13;100193.84;5072387;28;20112;-63
2021/01/11 06:49:03;;;;;;;39.83;16.83;;;;;;;-4.72;58.57;100198.19;5072060;28;20194;-60
2021/01/11 06:51:42;;;;;;;45.08;16.85;;;;;;;-4.68;58.11;100188.59;5071938;28;20040;-60
2021/01/11 06:54:08;;;;;;;37.55;15.70;;;;;;;-4.69;58.25;100190.34;5071999;28;20154;-60
2021/01/11 06:56:35;;;;;;;41.75;17.27;;;;;;;-5.12;58.13;100115.09;5071701;28;20032;-57
2021/01/11 06:59:11;;;;;;;40.42;16.65;;;;;;;-4.62;58.09;100212.03;5071556;28;20496;-62
2021/01/11 07:01:38;;;;;;;39.25;15.95;;;;;;;-4.95;58.41;100144.47;5071743;28;20416;-61
2021/01/11 07:04:05;;;;;;;39.63;16.13;;;;;;;-4.62;58.21;100198.97;5071278;28;20039;-59
2021/01/11 07:06:38;;;;;;;39.42;16.15;;;;;;;-4.69;57.72;100186.84;5063604;28;20077;-61
2021/01/11 07:09:14;;;;;;;45.33;17.00;;;;;;;-4.60;58.08;100202.41;5070923;28;20131;-64
2021/01/11 07:11:42;;;;;;;39.30;14.98;;;;;;;-4.62;57.81;100201.56;5071684;28;20446;-61
2021/01/11 07:14:09;;;;;;;42.63;17.10;;;;;;;-4.59;58.11;100192.84;5071351;28;20106;-61
2021/01/11 07:16:52;;;;;;;43.63;17.13;;;;;;;-4.57;58.31;100201.53;5071341;28;20481;-61
2021/01/11 07:19:36;;;;;;;44.45;17.10;;;;;;;-4.55;57.97;100190.19;5072161;28;20044;-68
2021/01/11 07:22:05;;;;;;;42.00;16.55;;;;;;;-4.52;57.74;100199.72;5071469;28;20232;-61
2021/01/11 07:24:30;;;;;;;39.72;16.25;;;;;;;-4.52;57.57;100195.38;5071272;28;20060;-62
2021/01/11 07:26:56;;;;;;;42.38;16.70;;;;;;;-4.50;57.54;100192.72;5071213;28;20530;-62
2021/01/11 07:29:22;;;;;;;41.85;16.15;;;;;;;-4.97;57.47;100116.66;5071196;28;20043;-60
2021/01/11 07:31:48;;;;;;;39.63;15.57;;;;;;;-4.50;57.86;100197.94;5071165;28;20041;-61
2021/01/11 07:34:21;;;;;;;40.92;16.70;;;;;;;-4.49;57.69;100190.09;5071233;28;20072;-63
2021/01/11 07:36:52;;;;;;;41.38;16.02;;;;;;;-4.48;57.71;100194.44;5071288;28;20035;-62
2021/01/11 07:39:30;;;;;;;38.75;16.35;;;;;;;-4.45;57.43;100187.44;5071237;28;20045;-62
2021/01/11 07:42:01;;;;;;;38.60;15.55;;;;;;;-4.42;57.25;100196.13;5070784;28;20599;-63
2021/01/11 07:44:31;;;;;;;42.30;16.15;;;;;;;-4.42;57.53;100184.78;5071062;28;20514;-62
2021/01/11 07:47:00;;;;;;;42.22;16.58;;;;;;;-4.39;57.82;100193.47;5070870;28;20035;-63
2021/01/11 07:49:28;;;;;;;39.90;15.85;;;;;;;-4.36;57.51;100190.78;5070565;28;20494;-60
2021/01/11 07:52:00;;;;;;;39.92;16.15;;;;;;;-4.49;56.92;100168.31;5070948;28;20502;-62
2021/01/11 07:54:25;;;;;;;40.15;16.30;;;;;;;-4.66;57.11;100127.59;5071143;28;20051;-62
2021/01/11 07:56:51;;;;;;;43.50;15.70;;;;;;;-4.30;57.35;100195.09;5070716;28;20028;-61
2021/01/11 07:59:18;;;;;;;40.83;15.85;;;;;;;-4.27;57.42;100195.03;5070771;28;20044;-62
2021/01/11 08:01:45;;;;;;;39.63;15.30;;;;;;;-4.22;57.33;100208.03;5069910;28;20024;-51
2021/01/11 08:04:12;;;;;;;40.72;16.75;;;;;;;-4.20;57.21;100199.28;5070965;28;20044;-57
2021/01/11 08:06:53;;;;;;;41.78;17.05;;;;;;;-4.42;57.23;100138.63;5085738;28;20097;-55
2021/01/11 08:09:21;;;;;;;38.95;15.93;;;;;;;-4.16;56.82;100180.94;5075564;28;20105;-55
2021/01/11 08:11:47;;;;;;;42.95;16.63;;;;;;;-4.23;57.06;100175.81;5083196;28;20123;-57
2021/01/11 08:14:13;;;;;;;46.30;17.20;;;;;;;-4.18;56.81;100184.44;5078153;28;20047;-58
2021/01/11 08:16:41;;;;;;;43.47;16.77;;;;;;;-4.14;56.92;100194.84;5065165;28;20416;-57
2021/01/11 08:19:07;;;;;;;43.28;16.10;;;;;;;-4.09;56.76;100182.59;5062392;28;20543;-53
2021/01/11 08:21:34;;;;;;;40.08;16.55;;;;;;;-4.01;56.96;100196.44;5082340;28;20040;-58
2021/01/11 08:24:02;;;;;;;47.50;18.40;;;;;;;-3.96;56.59;100181.53;5080774;28;20071;-62
2021/01/11 08:26:30;;;;;;;48.50;18.63;;;;;;;-3.94;56.33;100171.03;5075161;28;20052;-62
2021/01/11 08:28:57;;;;;;;46.50;17.77;;;;;;;-4.32;56.29;100087.06;5074475;28;20039;-61
2021/01/11 08:31:23;;;;;;;48.42;18.67;;;;;;;-4.06;55.58;100104.09;5073708;28;20043;-61
2021/01/11 08:33:49;;;;;;;49.90;19.10;;;;;;;-3.52;55.15;100173.00;5074796;28;20036;-55
2021/01/11 08:36:20;;;;;;;46.00;18.48;;;;;;;-3.54;55.01;100164.31;5082348;28;20040;-62
2021/01/11 08:39:06;;;;;;;47.67;19.13;;;;;;;-3.42;54.79;100168.47;5103278;27;20722;-59
2021/01/11 08:41:34;;;;;;;46.22;18.23;;;;;;;-3.42;54.59;100171.06;5093408;28;20122;-57
2021/01/11 08:43:59;;;;;;;48.78;19.58;;;;;;;-3.40;54.80;100175.38;5095096;28;20060;-54
2021/01/11 08:47:03;;;;;;;44.10;18.15;;;;;;;-3.32;54.66;100168.28;5092941;28;20594;-53
2021/01/11 08:49:29;;;;;;;43.67;18.60;;;;;;;-3.23;54.42;100174.22;5078362;28;20398;-58
2021/01/11 08:52:06;;;;;;;45.72;18.77;;;;;;;-3.22;53.78;100160.25;5096744;28;20119;-52
2021/01/11 08:54:33;;;;;;;49.08;19.15;;;;;;;-3.39;54.01;100124.75;5080314;28;20029;-61
2021/01/11 08:57:08;;;;;;;47.75;18.67;;;;;;;-3.19;53.66;100160.19;5090550;28;20408;-61
2021/01/11 08:59:34;;;;;;;51.53;19.67;;;;;;;-3.30;53.77;100135.97;5075880;28;20972;-64
2021/01/11 09:01:59;;;;;;;50.63;18.58;;;;;;;-3.11;54.06;100171.41;5082830;28;20091;-56
2021/01/11 09:04:35;;;;;;;45.90;18.15;;;;;;;-3.55;53.04;100070.97;5074050;28;20035;-69
2021/01/11 09:07:04;;;;;;;45.92;18.55;;;;;;;-3.06;53.94;100166.94;5081587;28;20040;-62
2021/01/11 09:09:30;;;;;;;48.25;19.13;;;;;;;-3.02;53.60;100146.75;5078672;28;20122;-56
2021/01/11 09:12:07;;;;;;;44.22;18.60;;;;;;;-3.06;54.01;100145.09;5094513;28;20075;-58
2021/01/11 09:14:34;;;;;;;47.63;18.77;;;;;;;-2.99;53.94;100145.84;5083247;28;20412;-55
2021/01/11 09:17:03;;;;;;;49.97;19.88;;;;;;;-3.37;53.55;100083.72;5091909;28;20040;-52
2021/01/11 09:19:29;;;;;;;44.22;18.40;;;;;;;-2.90;53.32;100156.13;5098485;28;20071;-58
2021/01/11 09:22:15;;;;;;;51.58;19.17;;;;;;;-2.88;53.55;100144.72;5095882;28;20028;-60
2021/01/11 09:24:42;;;;;;;45.97;19.25;;;;;;;-2.83;53.44;100141.16;5089816;28;20040;-64
2021/01/11 09:27:08;;;;;;;46.50;19.65;;;;;;;-3.13;53.26;100097.22;5102460;28;20054;-62
2021/01/11 09:29:34;;;;;;;47.92;18.90;;;;;;;-2.75;53.21;100134.88;5092857;28;20077;-63
2021/01/11 09:32:00;;;;;;;48.63;19.00;;;;;;;-2.82;53.70;100119.28;5095382;28;20814;-60
2021/01/11 09:34:25;;;;;;;42.47;18.60;;;;;;;-2.66;53.56;100139.06;5099478;28;20040;-56
2021/01/11 09:36:51;;;;;;;48.88;19.77;;;;;;;-2.86;52.92;100125.50;5087357;28;20032;-60
2021/01/11 09:39:17;;;;;;;52.50;20.90;;;;;;;-2.65;53.26;100137.31;5102094;28;20036;-60
2021/01/11 09:41:53;;;;;;;48.92;19.45;;;;;;;-2.74;52.85;100126.09;5094526;28;20126;-61
2021/01/11 09:44:19;;;;;;;47.63;19.65;;;;;;;-2.56;53.36;100144.97;5092925;28;20581;-62
2021/01/11 09:46:50;;;;;;;52.08;21.20;;;;;;;-2.59;52.87;100126.69;5102426;28;20415;-66
2021/01/11 09:49:17;;;;;;;45.35;19.17;;;;;;;-2.47;52.81;100125.56;5049284;28;20032;-61
2021/01/11 09:51:42;;;;;;;48.67;19.45;;;;;;;-2.46;52.58;100136.00;5082909;28;20040;-62
2021/01/11 09:54:09;;;;;;;46.55;19.42;;;;;;;-2.43;52.82;100134.19;5083230;28;20028;-62
2021/01/11 09:56:36;;;;;;;51.78;20.00;;;;;;;-2.39;53.21;100118.38;5075696;28;20124;-58
2021/01/11 09:59:02;;;;;;;44.50;18.80;;;;;;;-2.34;52.87;100126.16;5078325;28;20542;-57
2021/01/11 10:01:42;;;;;;;43.38;18.50;;;;;;;-2.38;52.57;100093.88;5086233;28;20051;-60
2021/01/11 10:04:09;;;;;;;49.42;19.17;;;;;;;-2.23;52.86;100104.94;5082769;28;20035;-54
2021/01/11 10:06:56;;;;;;;45.75;19.15;;;;;;;-2.19;52.22;100096.94;5076618;28;20039;-55
2021/01/11 10:09:26;;;;;;;42.28;18.38;;;;;;;-2.08;51.98;100119.44;5061805;28;20422;-56
2021/01/11 10:11:58;;;;;;;52.05;19.27;;;;;;;-2.08;51.99;100111.56;5082489;28;20048;-57
2021/01/11 10:14:25;;;;;;;46.92;19.75;;;;;;;-2.12;52.19;100086.31;5085153;28;20036;-56
2021/01/11 10:16:51;;;;;;;42.95;20.80;;;;;;;-2.05;51.46;100090.50;5075018;28;20032;-58
2021/01/11 10:19:27;;;;;;;43.25;18.67;;;;;;;-2.12;51.69;100092.41;5074241;28;20510;-51
2021/01/11 10:21:53;;;;;;;47.95;18.50;;;;;;;-2.17;51.41;100073.28;5082140;28;20040;-52
2021/01/11 10:24:21;;;;;;;48.95;19.63;;;;;;;-2.00;52.13;100093.03;5085184;28;20055;-53
2021/01/11 10:26:48;;;;;;;48.05;18.88;;;;;;;-1.95;51.81;100094.59;5074818;28;20496;-57
2021/01/11 10:29:17;;;;;;;42.72;17.70;;;;;;;-1.89;51.91;100094.47;5087902;28;20021;-56
2021/01/11 10:31:44;;;;;;;44.13;19.15;;;;;;;-1.96;51.52;100077.13;5079337;28;20028;-54
2021/01/11 10:34:10;;;;;;;47.72;19.33;;;;;;;-2.19;51.58;100048.88;5079381;28;20399;-52
2021/01/11 10:36:41;;;;;;;41.63;17.92;;;;;;;-1.90;51.49;100084.88;5086645;28;20035;-55
2021/01/11 10:39:07;;;;;;;45.42;19.17;;;;;;;-1.82;51.87;100086.44;5074779;28;20513;-57
2021/01/11 10:41:33;;;;;;;46.92;19.58;;;;;;;-1.81;51.43;100089.03;5084461;28;20025;-53
2021/01/11 10:44:07;;;;;;;48.67;19.75;;;;;;;-1.81;51.17;100075.03;5082171;28;20042;-54
2021/01/11 10:46:34;;;;;;;44.03;18.80;;;;;;;-1.79;51.27;100065.38;5074593;28;20036;-55
2021/01/11 10:48:59;;;;;;;39.47;17.33;;;;;;;-1.75;51.41;100094.13;5083898;28;20036;-57
2021/01/11 10:51:25;;;;;;;41.35;18.13;;;;;;;-1.86;51.33;100054.16;5085811;28;20042;-56
2021/01/11 10:53:51;;;;;;;43.50;18.25;;;;;;;-2.02;51.42;100037.94;5079640;28;20040;-54
2021/01/11 10:56:17;;;;;;;45.60;18.55;;;;;;;-1.83;51.54;100071.59;5078601;28;20567;-51
2021/01/11 10:58:42;;;;;;;47.42;18.52;;;;;;;-1.91;51.17;100058.66;5086595;28;20111;-50
2021/01/11 11:01:12;;;;;;;43.28;19.15;;;;;;;-1.81;51.52;100089.03;5073070;28;20066;-57
2021/01/11 11:03:37;;;;;;;40.72;17.45;;;;;;;-2.37;51.13;99971.50;5089677;28;20114;-55
2021/01/11 11:06:03;;;;;;;52.45;20.88;;;;;;;-1.79;51.65;100071.50;5079959;28;20112;-60
2021/01/11 11:08:28;;;;;;;51.40;20.38;;;;;;;-2.34;51.28;99993.25;5085012;28;20069;-57
2021/01/11 11:10:54;;;;;;;49.30;20.50;;;;;;;-2.12;51.09;100044.34;5074341;28;20058;-60
2021/01/11 11:13:19;;;;;;;43.95;18.67;;;;;;;-2.57;51.71;99974.59;5084544;28;20503;-56
2021/01/11 11:15:46;;;;;;;42.63;19.67;;;;;;;-1.96;51.27;100089.41;5077503;28;20055;-58